sensor_id;sensor_type;location;lat;lon;timestamp;pressure;altitude;pressure_sealevel;temperature;humidity
51297;BME280;37380;45.186;9.792;2023-11-19T15:19:56;101286.75;;;11.87;64.73
51297;BME280;37380;45.186;9.792;2023-11-19T15:22:57;101288.66;;;11.70;66.00
51297;BME280;37380;45.186;9.792;2023-11-19T15:25:25;101283.00;;;11.64;65.74
51297;BME280;37380;45.186;9.792;2023-11-19T15:27:52;101288.53;;;11.59;66.29
51297;BME280;37380;45.186;9.792;2023-11-19T15:30:20;101286.44;;;11.48;66.93
51297;BME280;37380;45.186;9.792;2023-11-19T15:32:47;101292.44;;;11.41;66.94
51297;BME280;37380;45.186;9.792;2023-11-19T15:35:14;101295.25;;;11.41;65.77
51297;BME280;37380;45.186;9.792;2023-11-19T15:37:41;101294.03;;;11.47;65.76
51297;BME280;37380;45.186;9.792;2023-11-19T15:40:11;101299.50;;;11.36;66.72
51297;BME280;37380;45.186;9.792;2023-11-19T15:42:40;101300.63;;;11.19;68.83
51297;BME280;37380;45.186;9.792;2023-11-19T15:45:08;101293.84;;;11.00;69.07
51297;BME280;37380;45.186;9.792;2023-11-19T15:47:35;101297.44;;;10.80;69.90
51297;BME280;37380;45.186;9.792;2023-11-19T15:50:03;101304.13;;;10.68;71.22
51297;BME280;37380;45.186;9.792;2023-11-19T15:52:31;101305.91;;;10.45;72.73
51297;BME280;37380;45.186;9.792;2023-11-19T15:54:58;101300.09;;;10.49;71.84
51297;BME280;37380;45.186;9.792;2023-11-19T15:57:26;101300.66;;;10.33;72.52
51297;BME280;37380;45.186;9.792;2023-11-19T15:59:54;101302.53;;;10.21;72.47
51297;BME280;37380;45.186;9.792;2023-11-19T16:02:21;101300.66;;;10.12;73.43
51297;BME280;37380;45.186;9.792;2023-11-19T16:04:48;101302.38;;;10.10;72.95
51297;BME280;37380;45.186;9.792;2023-11-19T16:07:17;101296.44;;;10.02;73.59
51297;BME280;37380;45.186;9.792;2023-11-19T16:09:44;101302.41;;;9.95;73.78
51297;BME280;37380;45.186;9.792;2023-11-19T16:12:11;101299.50;;;10.04;73.21
51297;BME280;37380;45.186;9.792;2023-11-19T16:14:40;101300.50;;;9.87;73.84
51297;BME280;37380;45.186;9.792;2023-11-19T16:17:08;101307.81;;;9.70;75.34
51297;BME280;37380;45.186;9.792;2023-11-19T16:20:10;101305.25;;;9.66;75.14
51297;BME280;37380;45.186;9.792;2023-11-19T16:22:39;101308.06;;;9.52;75.49
51297;BME280;37380;45.186;9.792;2023-11-19T16:25:39;101307.75;;;9.64;74.48
51297;BME280;37380;45.186;9.792;2023-11-19T16:28:08;101310.28;;;9.47;74.87
51297;BME280;37380;45.186;9.792;2023-11-19T16:30:35;101304.59;;;9.71;74.48
51297;BME280;37380;45.186;9.792;2023-11-19T16:33:02;101312.72;;;9.60;74.52
51297;BME280;37380;45.186;9.792;2023-11-19T16:35:32;101311.13;;;9.39;75.90
51297;BME280;37380;45.186;9.792;2023-11-19T16:38:01;101309.13;;;9.54;76.18
51297;BME280;37380;45.186;9.792;2023-11-19T16:40:28;101312.97;;;9.42;75.89
51297;BME280;37380;45.186;9.792;2023-11-19T16:42:55;101316.22;;;9.26;76.69
51297;BME280;37380;45.186;9.792;2023-11-19T16:45:23;101327.34;;;9.26;76.25
51297;BME280;37380;45.186;9.792;2023-11-19T16:47:50;101327.72;;;9.33;76.83
51297;BME280;37380;45.186;9.792;2023-11-19T16:50:19;101321.28;;;9.27;76.83
51297;BME280;37380;45.186;9.792;2023-11-19T16:52:46;101328.94;;;9.03;77.74
51297;BME280;37380;45.186;9.792;2023-11-19T16:55:14;101330.28;;;9.08;76.85
51297;BME280;37380;45.186;9.792;2023-11-19T16:57:42;101326.38;;;9.00;78.53
51297;BME280;37380;45.186;9.792;2023-11-19T17:00:12;101334.78;;;9.05;78.77
51297;BME280;37380;45.186;9.792;2023-11-19T17:02:40;101329.44;;;9.02;79.71
51297;BME280;37380;45.186;9.792;2023-11-19T17:05:12;101336.63;;;9.23;77.67
51297;BME280;37380;45.186;9.792;2023-11-19T17:07:40;101337.94;;;8.84;78.75
51297;BME280;37380;45.186;9.792;2023-11-19T17:10:07;101333.22;;;8.90;79.01
51297;BME280;37380;45.186;9.792;2023-11-19T17:12:36;101341.28;;;8.88;79.37
51297;BME280;37380;45.186;9.792;2023-11-19T17:15:04;101347.09;;;8.75;79.51
51297;BME280;37380;45.186;9.792;2023-11-19T17:17:36;101344.91;;;8.55;79.91
51297;BME280;37380;45.186;9.792;2023-11-19T17:20:04;101343.53;;;8.74;79.65
51297;BME280;37380;45.186;9.792;2023-11-19T17:22:37;101340.34;;;8.67;80.22
51297;BME280;37380;45.186;9.792;2023-11-19T17:25:06;101339.66;;;8.57;79.27
51297;BME280;37380;45.186;9.792;2023-11-19T17:27:33;101335.66;;;8.35;80.45
51297;BME280;37380;45.186;9.792;2023-11-19T17:30:01;101331.88;;;8.47;81.22
51297;BME280;37380;45.186;9.792;2023-11-19T17:32:41;101331.22;;;8.52;80.79
51297;BME280;37380;45.186;9.792;2023-11-19T17:35:09;101322.41;;;8.53;80.85
51297;BME280;37380;45.186;9.792;2023-11-19T17:37:36;101325.66;;;8.75;80.08
51297;BME280;37380;45.186;9.792;2023-11-19T17:40:04;101326.47;;;8.67;79.19
51297;BME280;37380;45.186;9.792;2023-11-19T17:42:31;101331.31;;;8.57;79.74
51297;BME280;37380;45.186;9.792;2023-11-19T17:44:58;101331.16;;;8.61;80.17
51297;BME280;37380;45.186;9.792;2023-11-19T17:47:26;101330.97;;;8.64;79.07
51297;BME280;37380;45.186;9.792;2023-11-19T17:49:53;101338.72;;;8.60;79.91
51297;BME280;37380;45.186;9.792;2023-11-19T17:52:21;101337.34;;;8.56;79.23
51297;BME280;37380;45.186;9.792;2023-11-19T17:54:49;101344.78;;;8.73;79.67
51297;BME280;37380;45.186;9.792;2023-11-19T17:57:16;101350.47;;;8.32;79.19
51297;BME280;37380;45.186;9.792;2023-11-19T17:59:43;101346.22;;;8.12;81.15
51297;BME280;37380;45.186;9.792;2023-11-19T18:02:14;101340.63;;;8.22;80.84
51297;BME280;37380;45.186;9.792;2023-11-19T18:04:47;101342.34;;;8.19;80.33
51297;BME280;37380;45.186;9.792;2023-11-19T18:07:17;101351.28;;;8.23;79.96
51297;BME280;37380;45.186;9.792;2023-11-19T18:09:45;101354.84;;;8.14;79.87
51297;BME280;37380;45.186;9.792;2023-11-19T18:12:12;101356.53;;;8.12;80.24
51297;BME280;37380;45.186;9.792;2023-11-19T18:14:43;101347.53;;;8.35;79.14
51297;BME280;37380;45.186;9.792;2023-11-19T18:17:13;101347.25;;;8.33;79.81
51297;BME280;37380;45.186;9.792;2023-11-19T18:19:42;101347.25;;;8.24;80.16
51297;BME280;37380;45.186;9.792;2023-11-19T18:22:09;101348.78;;;8.25;78.31
51297;BME280;37380;45.186;9.792;2023-11-19T18:24:36;101346.06;;;8.16;79.45
51297;BME280;37380;45.186;9.792;2023-11-19T18:27:04;101337.81;;;7.98;80.66
51297;BME280;37380;45.186;9.792;2023-11-19T18:29:34;101348.91;;;8.07;80.76
51297;BME280;37380;45.186;9.792;2023-11-19T18:32:02;101351.97;;;8.09;81.25
51297;BME280;37380;45.186;9.792;2023-11-19T18:34:31;101349.47;;;8.11;80.38
51297;BME280;37380;45.186;9.792;2023-11-19T18:36:58;101348.66;;;8.20;81.42
51297;BME280;37380;45.186;9.792;2023-11-19T18:39:26;101347.75;;;7.90;80.50
51297;BME280;37380;45.186;9.792;2023-11-19T18:41:53;101345.31;;;7.83;81.61
51297;BME280;37380;45.186;9.792;2023-11-19T18:44:20;101340.88;;;8.09;81.43
51297;BME280;37380;45.186;9.792;2023-11-19T18:46:47;101335.19;;;8.03;81.04
51297;BME280;37380;45.186;9.792;2023-11-19T18:49:14;101334.25;;;7.74;80.78
51297;BME280;37380;45.186;9.792;2023-11-19T18:51:41;101341.31;;;7.75;81.39
51297;BME280;37380;45.186;9.792;2023-11-19T18:54:08;101342.88;;;7.67;82.24
51297;BME280;37380;45.186;9.792;2023-11-19T18:56:35;101340.44;;;7.69;81.77
51297;BME280;37380;45.186;9.792;2023-11-19T18:59:03;101353.72;;;7.88;83.04
51297;BME280;37380;45.186;9.792;2023-11-19T19:01:32;101353.97;;;7.67;81.52
51297;BME280;37380;45.186;9.792;2023-11-19T19:03:59;101359.50;;;7.67;81.31
51297;BME280;37380;45.186;9.792;2023-11-19T19:06:27;101366.63;;;7.59;82.03
51297;BME280;37380;45.186;9.792;2023-11-19T19:09:03;101362.94;;;7.53;83.13
51297;BME280;37380;45.186;9.792;2023-11-19T19:11:37;101357.25;;;7.56;82.18
51297;BME280;37380;45.186;9.792;2023-11-19T19:14:10;101361.13;;;7.40;81.98
51297;BME280;37380;45.186;9.792;2023-11-19T19:16:44;101358.69;;;7.33;81.95
51297;BME280;37380;45.186;9.792;2023-11-19T19:19:11;101358.03;;;7.47;82.61
51297;BME280;37380;45.186;9.792;2023-11-19T19:21:38;101364.84;;;7.37;82.90
51297;BME280;37380;45.186;9.792;2023-11-19T19:24:06;101369.31;;;7.35;83.17
51297;BME280;37380;45.186;9.792;2023-11-19T19:26:42;101370.69;;;7.39;82.55
51297;BME280;37380;45.186;9.792;2023-11-19T19:29:11;101367.47;;;7.32;83.28
51297;BME280;37380;45.186;9.792;2023-11-19T19:31:44;101366.66;;;7.40;82.70
51297;BME280;37380;45.186;9.792;2023-11-19T19:34:12;101362.38;;;7.39;83.25
51297;BME280;37380;45.186;9.792;2023-11-19T19:36:39;101366.53;;;7.35;83.15
51297;BME280;37380;45.186;9.792;2023-11-19T19:39:06;101364.22;;;7.33;82.77
51297;BME280;37380;45.186;9.792;2023-11-19T19:41:41;101366.97;;;7.33;83.18
51297;BME280;37380;45.186;9.792;2023-11-19T19:44:09;101361.00;;;7.35;83.36
51297;BME280;37380;45.186;9.792;2023-11-19T19:46:36;101359.44;;;7.34;83.38
51297;BME280;37380;45.186;9.792;2023-11-19T19:49:03;101336.69;;;7.30;83.06
51297;BME280;37380;45.186;9.792;2023-11-19T19:51:32;101350.69;;;7.35;84.06
51297;BME280;37380;45.186;9.792;2023-11-19T19:53:59;101352.84;;;7.31;82.08
51297;BME280;37380;45.186;9.792;2023-11-19T19:56:26;101357.44;;;7.34;82.46
51297;BME280;37380;45.186;9.792;2023-11-19T19:58:53;101368.38;;;7.29;82.27
51297;BME280;37380;45.186;9.792;2023-11-19T20:01:20;101377.16;;;7.27;82.91
51297;BME280;37380;45.186;9.792;2023-11-19T20:03:47;101367.00;;;7.24;82.06
51297;BME280;37380;45.186;9.792;2023-11-19T20:06:15;101364.09;;;7.19;83.10
51297;BME280;37380;45.186;9.792;2023-11-19T20:08:43;101357.16;;;7.14;83.25
51297;BME280;37380;45.186;9.792;2023-11-19T20:11:10;101362.38;;;7.21;83.69
51297;BME280;37380;45.186;9.792;2023-11-19T20:13:38;101360.41;;;7.13;83.00
51297;BME280;37380;45.186;9.792;2023-11-19T20:16:05;101364.25;;;7.15;83.63
51297;BME280;37380;45.186;9.792;2023-11-19T20:18:33;101360.72;;;7.06;83.46
51297;BME280;37380;45.186;9.792;2023-11-19T20:21:01;101360.59;;;7.09;83.04
51297;BME280;37380;45.186;9.792;2023-11-19T20:23:34;101359.94;;;7.14;83.84
51297;BME280;37380;45.186;9.792;2023-11-19T20:26:02;101367.50;;;7.14;83.90
51297;BME280;37380;45.186;9.792;2023-11-19T20:28:29;101358.13;;;7.11;83.81
51297;BME280;37380;45.186;9.792;2023-11-19T20:30:57;101358.88;;;7.03;84.07
51297;BME280;37380;45.186;9.792;2023-11-19T20:33:24;101357.34;;;7.11;83.64
51297;BME280;37380;45.186;9.792;2023-11-19T20:35:53;101357.94;;;7.06;83.16
51297;BME280;37380;45.186;9.792;2023-11-19T20:38:22;101363.19;;;7.04;83.69
51297;BME280;37380;45.186;9.792;2023-11-19T20:40:53;101360.25;;;6.98;83.74
51297;BME280;37380;45.186;9.792;2023-11-19T20:43:20;101358.44;;;7.04;83.38
51297;BME280;37380;45.186;9.792;2023-11-19T20:45:47;101359.06;;;6.90;83.56
51297;BME280;37380;45.186;9.792;2023-11-19T20:48:14;101358.88;;;6.94;82.95
51297;BME280;37380;45.186;9.792;2023-11-19T20:50:41;101352.56;;;6.84;83.86
51297;BME280;37380;45.186;9.792;2023-11-19T20:53:08;101353.50;;;6.90;84.24
51297;BME280;37380;45.186;9.792;2023-11-19T20:55:36;101351.34;;;6.94;84.40
51297;BME280;37380;45.186;9.792;2023-11-19T20:58:05;101351.50;;;7.00;84.19
51297;BME280;37380;45.186;9.792;2023-11-19T21:00:35;101355.78;;;7.28;84.96
51297;BME280;37380;45.186;9.792;2023-11-19T21:03:04;101347.59;;;7.33;84.51
51297;BME280;37380;45.186;9.792;2023-11-19T21:05:36;101345.78;;;7.30;83.64
51297;BME280;37380;45.186;9.792;2023-11-19T21:08:08;101347.78;;;7.21;82.76
51297;BME280;37380;45.186;9.792;2023-11-19T21:10:36;101339.94;;;7.10;82.37
51297;BME280;37380;45.186;9.792;2023-11-19T21:13:04;101340.13;;;7.07;82.93
51297;BME280;37380;45.186;9.792;2023-11-19T21:15:31;101339.94;;;7.10;83.33
51297;BME280;37380;45.186;9.792;2023-11-19T21:17:59;101335.75;;;7.33;83.96
51297;BME280;37380;45.186;9.792;2023-11-19T21:20:27;101331.41;;;7.41;83.56
51297;BME280;37380;45.186;9.792;2023-11-19T21:22:55;101332.19;;;7.41;84.22
51297;BME280;37380;45.186;9.792;2023-11-19T21:25:22;101334.00;;;7.54;83.67
51297;BME280;37380;45.186;9.792;2023-11-19T21:27:50;101330.03;;;7.45;83.35
51297;BME280;37380;45.186;9.792;2023-11-19T21:30:18;101326.38;;;7.30;82.81
51297;BME280;37380;45.186;9.792;2023-11-19T21:32:46;101327.59;;;7.29;82.07
51297;BME280;37380;45.186;9.792;2023-11-19T21:35:13;101330.56;;;7.26;81.83
51297;BME280;37380;45.186;9.792;2023-11-19T21:37:42;101336.56;;;7.06;82.29
51297;BME280;37380;45.186;9.792;2023-11-19T21:40:09;101329.19;;;7.03;82.16
51297;BME280;37380;45.186;9.792;2023-11-19T21:42:37;101329.50;;;6.96;83.07
51297;BME280;37380;45.186;9.792;2023-11-19T21:45:04;101340.56;;;7.23;81.90
51297;BME280;37380;45.186;9.792;2023-11-19T21:52:36;101335.31;;;7.25;81.66
51297;BME280;37380;45.186;9.792;2023-11-19T21:55:03;101330.41;;;7.02;81.31
51297;BME280;37380;45.186;9.792;2023-11-19T21:57:30;101327.53;;;6.88;82.29
51297;BME280;37380;45.186;9.792;2023-11-19T21:59:57;101324.91;;;6.75;82.64
51297;BME280;37380;45.186;9.792;2023-11-19T22:02:25;101339.19;;;6.73;82.54
51297;BME280;37380;45.186;9.792;2023-11-19T22:04:52;101334.28;;;6.87;84.42
51297;BME280;37380;45.186;9.792;2023-11-19T22:07:19;101341.50;;;6.93;84.44
51297;BME280;37380;45.186;9.792;2023-11-19T22:09:46;101331.50;;;6.87;83.72
51297;BME280;37380;45.186;9.792;2023-11-19T22:12:13;101326.44;;;6.76;82.87
51297;BME280;37380;45.186;9.792;2023-11-19T22:14:40;101327.03;;;6.62;82.64
51297;BME280;37380;45.186;9.792;2023-11-19T22:17:08;101325.03;;;6.62;83.12
51297;BME280;37380;45.186;9.792;2023-11-19T22:19:35;101323.66;;;6.49;84.07
51297;BME280;37380;45.186;9.792;2023-11-19T22:22:02;101324.75;;;6.42;83.63
51297;BME280;37380;45.186;9.792;2023-11-19T22:24:29;101331.00;;;6.25;83.83
51297;BME280;37380;45.186;9.792;2023-11-19T22:26:57;101320.53;;;6.29;83.97
51297;BME280;37380;45.186;9.792;2023-11-19T22:29:25;101317.47;;;6.27;85.43
51297;BME280;37380;45.186;9.792;2023-11-19T22:31:52;101324.69;;;6.24;83.61
51297;BME280;37380;45.186;9.792;2023-11-19T22:34:19;101323.28;;;6.01;83.81
51297;BME280;37380;45.186;9.792;2023-11-19T22:36:46;101324.47;;;6.00;84.73
51297;BME280;37380;45.186;9.792;2023-11-19T22:39:13;101324.47;;;6.00;84.72
51297;BME280;37380;45.186;9.792;2023-11-19T22:41:40;101325.09;;;6.04;84.81
51297;BME280;37380;45.186;9.792;2023-11-19T22:44:07;101318.78;;;5.95;85.09
51297;BME280;37380;45.186;9.792;2023-11-19T22:46:34;101315.09;;;5.98;84.72
51297;BME280;37380;45.186;9.792;2023-11-19T22:49:04;101323.88;;;6.05;85.29
51297;BME280;37380;45.186;9.792;2023-11-19T22:51:32;101319.91;;;6.06;84.63
51297;BME280;37380;45.186;9.792;2023-11-19T22:54:00;101313.25;;;5.95;84.23
51297;BME280;37380;45.186;9.792;2023-11-19T22:56:27;101323.06;;;5.87;84.32
51297;BME280;37380;45.186;9.792;2023-11-19T22:58:54;101319.22;;;5.84;85.24
51297;BME280;37380;45.186;9.792;2023-11-19T23:01:21;101320.75;;;5.85;85.54
51297;BME280;37380;45.186;9.792;2023-11-19T23:03:49;101315.56;;;5.87;85.95
51297;BME280;37380;45.186;9.792;2023-11-19T23:06:16;101320.22;;;6.18;85.54
51297;BME280;37380;45.186;9.792;2023-11-19T23:08:43;101319.41;;;5.99;85.07
51297;BME280;37380;45.186;9.792;2023-11-19T23:11:10;101319.84;;;5.97;84.59
51297;BME280;37380;45.186;9.792;2023-11-19T23:13:37;101324.69;;;6.33;86.38
51297;BME280;37380;45.186;9.792;2023-11-19T23:16:05;101318.06;;;6.13;84.74
51297;BME280;37380;45.186;9.792;2023-11-19T23:18:33;101313.16;;;5.77;83.77
51297;BME280;37380;45.186;9.792;2023-11-19T23:21:00;101312.50;;;5.94;86.21
51297;BME280;37380;45.186;9.792;2023-11-19T23:23:29;101317.75;;;6.01;85.01
51297;BME280;37380;45.186;9.792;2023-11-19T23:25:56;101315.13;;;5.67;83.86
51297;BME280;37380;45.186;9.792;2023-11-19T23:28:24;101309.19;;;5.78;85.58
51297;BME280;37380;45.186;9.792;2023-11-19T23:30:52;101309.94;;;5.78;85.24
51297;BME280;37380;45.186;9.792;2023-11-19T23:33:19;101302.00;;;5.80;85.60
51297;BME280;37380;45.186;9.792;2023-11-19T23:35:46;101295.50;;;5.74;85.33
51297;BME280;37380;45.186;9.792;2023-11-19T23:38:13;101294.56;;;5.68;84.95
51297;BME280;37380;45.186;9.792;2023-11-19T23:40:40;101296.72;;;5.73;84.83
51297;BME280;37380;45.186;9.792;2023-11-19T23:43:07;101299.44;;;5.64;85.10
51297;BME280;37380;45.186;9.792;2023-11-19T23:45:34;101293.69;;;5.80;85.17
51297;BME280;37380;45.186;9.792;2023-11-19T23:48:02;101297.97;;;5.72;84.83
51297;BME280;37380;45.186;9.792;2023-11-19T23:50:29;101300.56;;;5.76;84.77
51297;BME280;37380;45.186;9.792;2023-11-19T23:52:56;101306.56;;;5.74;84.70
51297;BME280;37380;45.186;9.792;2023-11-19T23:55:24;101303.00;;;5.74;84.79
51297;BME280;37380;45.186;9.792;2023-11-19T23:57:51;101290.06;;;5.92;83.90
